createdAt,value
2017-11-13T04:44:24.816Z,6.57
2017-11-13T04:46:51.675Z,6.00
2017-11-13T04:49:18.977Z,8.03
2017-11-13T04:51:45.858Z,6.82
2017-11-13T04:54:12.694Z,7.83
2017-11-13T04:56:39.543Z,7.90
2017-11-13T04:59:06.424Z,6.32
2017-11-13T05:01:33.218Z,6.13
2017-11-13T05:04:00.065Z,7.20
2017-11-13T05:06:26.953Z,8.00
2017-11-13T05:11:26.986Z,7.30
2017-11-13T05:13:54.111Z,6.10
2017-11-13T05:16:20.913Z,6.90
2017-11-13T05:18:47.772Z,7.47
2017-11-13T05:21:14.940Z,6.73
2017-11-13T05:23:41.786Z,6.33
2017-11-13T05:26:08.689Z,6.40
2017-11-13T05:28:35.877Z,6.85
2017-11-13T05:31:02.725Z,7.47
2017-11-13T05:33:29.550Z,7.97
2017-11-13T05:35:56.383Z,6.37
2017-11-13T05:38:23.184Z,6.33
2017-11-13T05:40:50.028Z,6.87
2017-11-13T05:43:16.827Z,8.03
2017-11-13T05:45:43.984Z,5.73
2017-11-13T05:48:10.839Z,6.15
2017-11-13T05:50:37.772Z,6.90
2017-11-13T05:53:04.561Z,5.07
2017-11-13T05:55:31.871Z,7.07
2017-11-13T05:57:58.706Z,5.90
2017-11-13T06:00:25.547Z,5.82
2017-11-13T06:02:52.390Z,5.82
2017-11-13T06:05:19.232Z,6.60
2017-11-13T06:07:46.032Z,5.83
2017-11-13T06:10:12.874Z,5.50
2017-11-13T06:12:39.714Z,4.87
2017-11-13T06:15:07.026Z,6.93
2017-11-13T06:17:34.140Z,6.27
2017-11-13T06:20:01.177Z,6.33
2017-11-13T06:22:28.006Z,5.57
2017-11-13T06:24:54.888Z,6.72
2017-11-13T06:27:22.037Z,6.30
2017-11-13T06:29:49.254Z,7.20
2017-11-13T06:32:16.093Z,5.70
2017-11-13T06:34:42.915Z,6.27
2017-11-13T06:37:09.705Z,6.53
2017-11-13T06:39:36.548Z,6.55
2017-11-13T06:42:03.368Z,6.23
2017-11-13T06:44:30.183Z,5.80
2017-11-13T06:46:56.999Z,5.03
2017-11-13T06:49:23.767Z,7.30
2017-11-13T06:51:50.546Z,6.55
2017-11-13T06:54:17.401Z,6.45
2017-11-13T06:56:44.163Z,5.68
2017-11-13T06:59:11.266Z,5.72
2017-11-13T07:01:38.085Z,6.60
2017-11-13T07:04:05.818Z,5.47
2017-11-13T07:06:32.669Z,6.22
2017-11-13T07:08:59.511Z,5.70
2017-11-13T07:11:26.300Z,5.75
2017-11-13T07:13:53.099Z,6.15
2017-11-13T07:16:19.901Z,4.65
2017-11-13T07:18:46.679Z,5.10
2017-11-13T07:21:13.485Z,6.30
2017-11-13T07:23:41.003Z,5.57
2017-11-13T07:26:07.827Z,4.60
2017-11-13T07:28:34.916Z,4.30
2017-11-13T07:31:01.702Z,5.40
2017-11-13T07:33:28.822Z,4.37
2017-11-13T07:35:55.746Z,4.47
2017-11-13T07:38:22.567Z,6.15
2017-11-13T07:40:49.639Z,4.77
2017-11-13T07:43:16.411Z,5.80
2017-11-13T07:45:43.239Z,5.50
2017-11-13T07:48:10.552Z,5.65
2017-11-13T07:50:37.347Z,5.07
2017-11-13T07:53:04.143Z,4.83
2017-11-13T07:55:30.947Z,5.10
2017-11-13T07:57:57.994Z,6.43
2017-11-13T08:00:24.838Z,4.67
2017-11-13T08:02:51.698Z,4.60
2017-11-13T08:05:18.836Z,5.85
2017-11-13T08:07:45.682Z,6.13
2017-11-13T08:10:12.516Z,5.30
2017-11-13T08:12:39.304Z,4.73
2017-11-13T08:15:06.092Z,5.80
2017-11-13T08:17:32.875Z,5.03
2017-11-13T08:20:00.027Z,4.83
2017-11-13T08:22:26.894Z,4.62
2017-11-13T08:24:53.686Z,5.33
2017-11-13T08:27:20.518Z,3.90
2017-11-13T08:29:47.358Z,5.00
2017-11-13T08:32:14.818Z,4.77
2017-11-13T08:34:41.631Z,4.33
2017-11-13T08:37:08.466Z,4.30
2017-11-13T08:39:35.221Z,3.80
2017-11-13T08:42:03.290Z,4.20
2017-11-13T08:44:30.093Z,3.77
2017-11-13T08:46:56.886Z,3.37
2017-11-13T08:49:23.679Z,3.37
2017-11-13T08:51:50.468Z,3.37
2017-11-13T08:54:17.208Z,3.07
2017-11-13T08:56:43.979Z,3.23
2017-11-13T08:59:11.321Z,3.97
2017-11-13T09:01:38.392Z,3.23
2017-11-13T09:04:05.888Z,3.77
2017-11-13T09:06:32.714Z,3.63
2017-11-13T09:08:59.476Z,3.63
2017-11-13T09:11:26.245Z,3.33
2017-11-13T09:13:53.817Z,2.60
2017-11-13T09:16:20.598Z,4.07
2017-11-13T09:18:47.421Z,3.07
2017-11-13T09:21:14.234Z,3.00
2017-11-13T09:23:41.000Z,2.67
2017-11-13T09:26:07.786Z,3.30
2017-11-13T09:28:34.644Z,2.60
2017-11-13T09:31:01.407Z,3.30
2017-11-13T09:33:28.550Z,3.00
2017-11-13T09:35:56.050Z,2.80
2017-11-13T09:38:22.965Z,2.20
2017-11-13T09:40:50.567Z,3.00
2017-11-13T09:43:17.694Z,3.23
2017-11-13T09:45:44.745Z,3.00
2017-11-13T09:48:12.457Z,2.93
2017-11-13T09:50:40.676Z,3.17
2017-11-13T09:53:07.692Z,2.70
2017-11-13T09:55:35.515Z,3.80
2017-11-13T09:58:03.183Z,2.97
2017-11-13T10:00:30.550Z,3.60
2017-11-13T10:02:57.599Z,2.53
2017-11-13T10:05:24.830Z,3.77
2017-11-13T10:07:52.315Z,3.10
2017-11-13T10:10:19.114Z,3.00
2017-11-13T10:12:46.719Z,3.60
2017-11-13T10:15:13.787Z,3.30
2017-11-13T10:17:41.239Z,3.20
2017-11-13T10:20:08.133Z,2.53
2017-11-13T10:22:35.564Z,2.83
2017-11-13T10:25:02.783Z,2.63
2017-11-13T10:27:31.008Z,2.40
2017-11-13T10:29:58.247Z,2.53
2017-11-13T10:32:25.413Z,1.87
2017-11-13T10:34:52.473Z,2.87
2017-11-13T10:37:19.922Z,2.03
2017-11-13T10:39:47.803Z,2.37
2017-11-13T10:42:14.849Z,3.00
2017-11-13T10:44:41.642Z,2.73
2017-11-13T10:47:09.362Z,2.30
2017-11-13T10:49:36.686Z,2.47
2017-11-13T10:52:03.892Z,1.93
2017-11-13T10:54:31.855Z,3.17
2017-11-13T10:57:01.084Z,2.47
2017-11-13T10:59:28.515Z,1.90
2017-11-13T11:01:55.616Z,2.70
2017-11-13T11:04:23.285Z,2.20
2017-11-13T11:06:50.557Z,2.10
2017-11-13T11:09:17.448Z,2.90
2017-11-13T11:11:44.867Z,3.27
2017-11-13T11:14:19.041Z,3.53
2017-11-13T11:17:07.876Z,2.23
2017-11-13T11:19:50.584Z,2.60
2017-11-13T11:22:23.162Z,2.20
2017-11-13T11:24:50.222Z,2.40
2017-11-13T11:27:18.952Z,2.33
2017-11-13T11:29:51.837Z,2.07
2017-11-13T11:32:19.319Z,2.83
2017-11-13T11:35:00.227Z,2.73
2017-11-13T11:37:31.889Z,2.57
2017-11-13T11:39:59.893Z,3.07
2017-11-13T11:42:27.880Z,2.93
2017-11-13T11:44:55.806Z,2.60
2017-11-13T11:47:23.623Z,3.47
2017-11-13T11:49:50.701Z,3.10
2017-11-13T11:52:17.724Z,3.63
2017-11-13T11:54:51.446Z,3.27
2017-11-13T11:57:37.480Z,3.67
2017-11-13T12:00:04.838Z,6.80
2017-11-13T12:02:31.675Z,3.37
2017-11-13T12:04:59.509Z,4.40
2017-11-13T12:07:26.801Z,3.80
2017-11-13T12:09:53.826Z,3.70
2017-11-13T12:12:20.871Z,3.60
2017-11-13T12:14:47.909Z,3.80
2017-11-13T12:17:15.759Z,3.60
2017-11-13T12:19:43.106Z,3.73
2017-11-13T12:22:10.013Z,3.50
2017-11-13T12:24:37.072Z,3.93
2017-11-13T12:27:06.642Z,3.30
2017-11-13T12:29:33.766Z,2.10
2017-11-13T12:32:01.405Z,1.77
2017-11-13T12:34:28.854Z,1.30
2017-11-13T12:36:56.155Z,1.77
2017-11-13T12:39:36.793Z,1.87
2017-11-13T12:42:03.619Z,1.50
2017-11-13T12:44:31.533Z,1.80
2017-11-13T12:46:59.008Z,1.07
2017-11-13T12:49:26.061Z,1.27
2017-11-13T12:51:53.428Z,0.97
2017-11-13T12:54:20.781Z,1.13
2017-11-13T12:56:48.347Z,1.57
2017-11-13T12:59:16.061Z,1.00
2017-11-13T13:01:43.431Z,1.47
2017-11-13T13:04:10.685Z,1.00
2017-11-13T13:06:38.211Z,0.90
2017-11-13T13:09:05.092Z,1.20
2017-11-13T13:11:32.312Z,1.27
2017-11-13T13:13:59.928Z,1.60
2017-11-13T13:16:27.225Z,1.40
2017-11-13T13:18:55.114Z,3.30
2017-11-13T13:21:22.383Z,3.00
2017-11-13T13:23:49.552Z,9.70
2017-11-13T13:26:16.618Z,3.80
2017-11-13T13:28:44.033Z,1.93
2017-11-13T13:31:11.959Z,2.30
2017-11-13T13:33:38.812Z,3.03
2017-11-13T13:36:06.214Z,2.37
2017-11-13T13:38:33.882Z,2.00
2017-11-13T13:41:00.975Z,2.37
2017-11-13T13:43:28.706Z,3.00
2017-11-13T13:45:56.699Z,2.70
2017-11-13T13:48:24.179Z,2.47
2017-11-13T13:50:51.233Z,4.43
2017-11-13T13:53:18.374Z,2.50
2017-11-13T13:55:45.955Z,6.50
2017-11-13T13:58:12.821Z,4.60
2017-11-13T14:00:40.118Z,1.57
2017-11-13T14:03:07.559Z,2.27
2017-11-13T14:05:34.492Z,3.50
2017-11-13T14:08:01.362Z,2.50
2017-11-13T14:10:28.243Z,3.03
2017-11-13T14:12:55.384Z,2.60
2017-11-13T14:15:22.968Z,4.57
2017-11-13T14:17:50.413Z,5.03
2017-11-13T14:20:17.470Z,4.90
2017-11-13T14:22:44.373Z,4.00
2017-11-13T14:25:11.474Z,4.40
2017-11-13T14:27:38.621Z,3.00
2017-11-13T14:30:05.675Z,2.43
2017-11-13T14:32:32.511Z,4.77
2017-11-13T14:34:59.795Z,3.47
2017-11-13T14:37:27.314Z,2.90
2017-11-13T14:39:54.510Z,4.47
2017-11-13T14:42:21.969Z,3.77
2017-11-13T14:44:49.060Z,3.57
2017-11-13T14:47:16.279Z,4.05
2017-11-13T14:49:43.183Z,3.70
2017-11-13T14:52:11.564Z,4.10
2017-11-13T14:54:39.588Z,3.73
2017-11-13T14:57:07.067Z,3.70
2017-11-13T14:59:34.300Z,3.50
2017-11-13T15:02:01.357Z,3.17
2017-11-13T15:04:28.181Z,3.97
2017-11-13T15:06:54.998Z,3.63
2017-11-13T15:09:21.835Z,4.90
2017-11-13T15:11:49.063Z,4.70
2017-11-13T15:14:15.861Z,4.90
2017-11-13T15:16:42.757Z,4.40
2017-11-13T15:19:09.633Z,5.10
2017-11-13T15:21:37.479Z,3.43
2017-11-13T15:24:04.344Z,3.77
2017-11-13T15:26:31.162Z,4.63
2017-11-13T15:28:58.326Z,5.50
2017-11-13T15:31:25.149Z,5.50
2017-11-13T15:33:51.936Z,4.60
2017-11-13T15:36:19.700Z,4.50
2017-11-13T15:38:46.549Z,4.40
2017-11-13T15:41:13.364Z,4.57
2017-11-13T15:43:40.901Z,4.90
2017-11-13T15:46:07.705Z,4.73
2017-11-13T15:48:34.515Z,4.63
2017-11-13T15:51:01.294Z,5.00
2017-11-13T15:53:28.786Z,4.50
2017-11-13T15:55:56.153Z,5.03
2017-11-13T15:58:22.917Z,4.20
2017-11-13T16:00:49.715Z,3.93
2017-11-13T16:03:16.499Z,4.40
2017-11-13T16:05:43.276Z,3.30
2017-11-13T16:08:10.109Z,3.80
2017-11-13T16:10:37.005Z,3.77
2017-11-13T16:13:03.792Z,3.00
2017-11-13T16:15:31.219Z,3.73
2017-11-13T16:17:58.156Z,3.03
2017-11-13T16:20:25.335Z,3.97
2017-11-13T16:22:52.172Z,3.30
2017-11-13T16:25:18.935Z,3.70
2017-11-13T16:27:45.756Z,3.87
2017-11-13T16:30:12.804Z,3.70
2017-11-13T16:32:39.564Z,2.90
2017-11-13T16:35:06.680Z,3.67
2017-11-13T16:37:33.476Z,3.60
2017-11-13T16:40:00.248Z,3.63
2017-11-13T16:42:27.066Z,3.67
2017-11-13T16:44:53.932Z,3.50
2017-11-13T16:47:20.762Z,5.90
2017-11-13T16:49:48.660Z,6.20
2017-11-13T16:52:15.502Z,7.17
2017-11-13T16:54:42.315Z,7.80
2017-11-13T16:57:09.072Z,7.70
2017-11-13T16:59:36.424Z,6.47
2017-11-13T17:02:03.678Z,5.83
2017-11-13T17:04:30.622Z,6.03
2017-11-13T17:06:57.435Z,6.43
2017-11-13T17:09:24.212Z,4.03
2017-11-13T17:11:50.987Z,4.93
2017-11-13T17:14:17.808Z,6.40
2017-11-13T17:16:44.573Z,5.77
2017-11-13T17:19:11.377Z,5.07
2017-11-13T17:21:38.175Z,4.77
2017-11-13T17:24:05.019Z,4.77
2017-11-13T17:26:31.816Z,5.90
2017-11-13T17:28:59.362Z,4.80
2017-11-13T17:31:26.177Z,4.67
2017-11-13T17:33:53.655Z,5.10
2017-11-13T17:36:20.479Z,4.77
2017-11-13T17:38:47.315Z,7.07
2017-11-13T17:41:14.132Z,5.90
2017-11-13T17:43:40.937Z,6.23
2017-11-13T17:46:08.297Z,5.67
2017-11-13T17:48:35.122Z,7.27
2017-11-13T17:51:01.940Z,7.73
2017-11-13T17:53:28.704Z,7.53
2017-11-13T17:55:55.539Z,7.37
2017-11-13T17:58:22.372Z,6.73
2017-11-13T18:00:50.196Z,9.50
2017-11-13T18:03:16.984Z,10.33
2017-11-13T18:05:43.871Z,6.67
2017-11-13T18:08:10.632Z,8.67
2017-11-13T18:10:37.400Z,7.00
2017-11-13T18:13:04.236Z,7.90
2017-11-13T18:15:31.034Z,6.57
2017-11-13T18:17:57.836Z,7.30
2017-11-13T18:20:24.751Z,7.60
2017-11-13T18:22:51.661Z,6.27
2017-11-13T18:25:18.428Z,7.60
2017-11-13T18:27:45.328Z,7.70
2017-11-13T18:30:12.119Z,5.70
2017-11-13T18:32:39.241Z,7.00
2017-11-13T18:35:06.820Z,5.57
2017-11-13T18:37:33.712Z,7.20
2017-11-13T18:40:00.592Z,5.80
2017-11-13T18:42:27.431Z,7.77
2017-11-13T18:44:54.883Z,8.40
2017-11-13T18:47:21.653Z,7.13
2017-11-13T18:49:48.496Z,5.73
2017-11-13T18:52:15.254Z,8.77
2017-11-13T18:54:42.673Z,7.67
2017-11-13T18:57:10.061Z,8.00
2017-11-13T18:59:36.843Z,6.93
2017-11-13T19:02:03.615Z,7.00
2017-11-13T19:04:31.171Z,8.37
2017-11-13T19:06:58.010Z,6.80
2017-11-13T19:09:25.278Z,8.90
2017-11-13T19:11:52.092Z,7.90
2017-11-13T19:14:18.913Z,7.87
2017-11-13T19:16:45.758Z,7.87
2017-11-13T19:19:12.566Z,7.17
2017-11-13T19:21:39.361Z,8.13
2017-11-13T19:24:06.135Z,8.20
2017-11-13T19:26:32.941Z,6.70
2017-11-13T19:28:59.715Z,7.73
2017-11-13T19:31:26.510Z,8.27
2017-11-13T19:33:53.650Z,7.67
2017-11-13T19:36:20.451Z,7.33
2017-11-13T19:38:47.210Z,7.23
2017-11-13T19:41:14.320Z,8.07
2017-11-13T19:43:41.097Z,8.30
2017-11-13T19:46:07.924Z,7.90
2017-11-13T19:48:34.739Z,7.80
2017-11-13T19:51:02.030Z,6.83
2017-11-13T19:53:29.115Z,6.60
2017-11-13T19:55:57.010Z,7.50
2017-11-13T19:58:23.910Z,7.90
2017-11-13T20:00:51.686Z,6.87
2017-11-13T20:03:18.549Z,5.67
2017-11-13T20:05:45.336Z,8.17
2017-11-13T20:08:12.152Z,6.30
2017-11-13T20:10:39.913Z,7.80
2017-11-13T20:13:07.707Z,8.17
2017-11-13T20:15:34.543Z,7.27
2017-11-13T20:18:01.401Z,7.63
2017-11-13T20:20:28.543Z,7.20
2017-11-13T20:22:55.330Z,8.07
2017-11-13T20:25:22.213Z,8.20
2017-11-13T20:27:49.057Z,9.00
2017-11-13T20:30:16.348Z,9.83
2017-11-13T20:32:43.338Z,9.20
2017-11-13T20:35:10.148Z,8.67
2017-11-13T20:37:36.919Z,8.53
2017-11-13T20:40:03.753Z,7.47
2017-11-13T20:42:31.726Z,7.53
2017-11-13T20:44:59.075Z,6.80
2017-11-13T20:47:25.876Z,6.70
2017-11-13T20:49:52.707Z,7.87
2017-11-13T20:52:19.661Z,6.87
2017-11-13T20:54:47.177Z,7.00
2017-11-13T20:57:14.443Z,7.07
2017-11-13T20:59:41.240Z,8.40
2017-11-13T21:02:08.856Z,7.60
2017-11-13T21:04:35.705Z,7.43
2017-11-13T21:07:02.477Z,6.20
2017-11-13T21:09:29.910Z,6.60
2017-11-13T21:11:57.427Z,7.23
2017-11-13T21:14:24.184Z,5.60
2017-11-13T21:16:51.019Z,11.13
2017-11-13T21:19:18.785Z,10.53
2017-11-13T21:21:45.560Z,7.50
2017-11-13T21:24:12.394Z,6.83
2017-11-13T21:26:39.164Z,6.20
2017-11-13T21:29:05.941Z,7.00
2017-11-13T21:31:32.817Z,7.40
2017-11-13T21:33:59.961Z,7.20
2017-11-13T21:36:27.171Z,8.60
2017-11-13T21:38:54.004Z,6.03
2017-11-13T21:41:21.498Z,6.40
2017-11-13T21:43:48.279Z,6.17
2017-11-13T21:46:16.113Z,5.57
2017-11-13T21:48:42.918Z,6.47
2017-11-13T21:51:09.741Z,6.10
2017-11-13T21:53:36.662Z,5.97
2017-11-13T21:56:03.464Z,6.03
2017-11-13T21:58:30.274Z,6.37
2017-11-13T22:00:57.400Z,6.30
2017-11-13T22:03:24.176Z,5.83
2017-11-13T22:05:51.668Z,7.07
2017-11-13T22:08:18.476Z,7.40
2017-11-13T22:10:45.257Z,7.60
2017-11-13T22:13:12.715Z,7.57
2017-11-13T22:15:39.541Z,7.00
2017-11-13T22:18:06.300Z,6.00
2017-11-13T22:20:33.080Z,6.03
2017-11-13T22:22:59.899Z,6.10
2017-11-13T22:25:27.015Z,6.03
2017-11-13T22:27:54.183Z,6.33
2017-11-13T22:30:20.978Z,5.20
2017-11-13T22:32:47.790Z,5.30
2017-11-13T22:35:14.568Z,5.00
2017-11-13T22:37:41.451Z,4.83
2017-11-13T22:40:08.238Z,5.47
2017-11-13T22:42:35.019Z,5.83
2017-11-13T22:45:01.832Z,5.10
2017-11-13T22:47:28.595Z,4.20
2017-11-13T22:49:55.368Z,6.00
2017-11-13T22:52:22.173Z,5.40
2017-11-13T22:54:48.945Z,5.10
2017-11-13T22:57:15.972Z,4.97
2017-11-13T22:59:42.791Z,6.30
2017-11-13T23:02:09.582Z,6.17
2017-11-13T23:04:36.364Z,6.37
2017-11-13T23:07:03.186Z,6.37
2017-11-13T23:09:29.985Z,5.20
